sensor_id;sensor_type;location;lat;lon;timestamp;pressure;altitude;pressure_sealevel;temperature;humidity
71903;BME280;59778;50.310;18.780;2022-08-01T00:05:34;98687.16;;;13.98;88.28
71903;BME280;59778;50.310;18.780;2022-08-01T00:20:55;98686.59;;;13.83;87.97
71903;BME280;59778;50.310;18.780;2022-08-01T00:36:16;98672.00;;;13.64;88.30
71903;BME280;59778;50.310;18.780;2022-08-01T00:51:38;98677.69;;;13.56;87.10
71903;BME280;59778;50.310;18.780;2022-08-01T01:07:19;98674.44;;;13.28;87.85
71903;BME280;59778;50.310;18.780;2022-08-01T01:38:42;98660.63;;;13.23;87.13
71903;BME280;59778;50.310;18.780;2022-08-01T01:54:06;98662.09;;;13.06;87.88
71903;BME280;59778;50.310;18.780;2022-08-01T02:09:30;98656.88;;;12.98;87.38
71903;BME280;59778;50.310;18.780;2022-08-01T02:40:19;98655.69;;;12.67;88.74
71903;BME280;59778;50.310;18.780;2022-08-01T02:55:42;98662.56;;;12.76;87.76
71903;BME280;59778;50.310;18.780;2022-08-01T03:11:06;98662.38;;;12.65;87.36
71903;BME280;59778;50.310;18.780;2022-08-01T03:26:31;98671.00;;;12.55;87.03
71903;BME280;59778;50.310;18.780;2022-08-01T03:42:01;98655.06;;;12.46;87.36
71903;BME280;59778;50.310;18.780;2022-08-01T03:57:23;98672.03;;;12.48;88.38
71903;BME280;59778;50.310;18.780;2022-08-01T04:12:46;98686.50;;;12.68;90.04
71903;BME280;59778;50.310;18.780;2022-08-01T04:28:08;98673.66;;;13.01;90.18
71903;BME280;59778;50.310;18.780;2022-08-01T04:43:32;98673.28;;;13.55;91.67
71903;BME280;59778;50.310;18.780;2022-08-01T04:58:53;98683.78;;;13.96;93.71
71903;BME280;59778;50.310;18.780;2022-08-01T05:14:33;98674.69;;;14.40;94.97
71903;BME280;59778;50.310;18.780;2022-08-01T05:29:54;98669.91;;;14.85;94.60
71903;BME280;59778;50.310;18.780;2022-08-01T05:45:16;98665.16;;;15.35;92.80
71903;BME280;59778;50.310;18.780;2022-08-01T06:00:37;98670.50;;;15.96;89.46
71903;BME280;59778;50.310;18.780;2022-08-01T06:15:58;98687.06;;;16.73;86.36
71903;BME280;59778;50.310;18.780;2022-08-01T06:31:19;98682.53;;;17.36;85.31
71903;BME280;59778;50.310;18.780;2022-08-01T06:46:40;98679.16;;;18.54;78.32
71903;BME280;59778;50.310;18.780;2022-08-01T07:02:02;98684.38;;;19.22;76.38
71903;BME280;59778;50.310;18.780;2022-08-01T07:17:23;98673.31;;;19.77;74.76
71903;BME280;59778;50.310;18.780;2022-08-01T07:32:44;98666.56;;;20.39;72.41
71903;BME280;59778;50.310;18.780;2022-08-01T07:48:05;98660.53;;;21.47;67.98
71903;BME280;59778;50.310;18.780;2022-08-01T08:03:26;98671.41;;;21.64;66.27
71903;BME280;59778;50.310;18.780;2022-08-01T08:18:48;98682.88;;;21.93;63.11
71903;BME280;59778;50.310;18.780;2022-08-01T08:34:09;98677.41;;;22.03;61.89
71903;BME280;59778;50.310;18.780;2022-08-01T08:49:31;98690.13;;;21.99;62.87
71903;BME280;59778;50.310;18.780;2022-08-01T09:04:52;98702.63;;;22.17;63.03
71903;BME280;59778;50.310;18.780;2022-08-01T09:20:24;98705.16;;;22.33;59.81
71903;BME280;59778;50.310;18.780;2022-08-01T09:35:54;98709.59;;;22.44;61.19
71903;BME280;59778;50.310;18.780;2022-08-01T09:51:33;98713.88;;;22.82;61.46
71903;BME280;59778;50.310;18.780;2022-08-01T10:07:04;98702.78;;;22.82;60.03
71903;BME280;59778;50.310;18.780;2022-08-01T10:22:30;98695.88;;;23.05;58.59
71903;BME280;59778;50.310;18.780;2022-08-01T10:37:51;98695.50;;;23.67;56.78
71903;BME280;59778;50.310;18.780;2022-08-01T10:53:22;98705.22;;;23.55;57.40
71903;BME280;59778;50.310;18.780;2022-08-01T11:08:52;98709.97;;;22.73;62.32
71903;BME280;59778;50.310;18.780;2022-08-01T11:24:13;98709.38;;;22.61;64.74
71903;BME280;59778;50.310;18.780;2022-08-01T11:39:34;98693.81;;;22.35;63.96
71903;BME280;59778;50.310;18.780;2022-08-01T11:55:07;98694.47;;;23.18;62.23
71903;BME280;59778;50.310;18.780;2022-08-01T12:10:33;98686.91;;;23.69;61.41
71903;BME280;59778;50.310;18.780;2022-08-01T12:25:57;98669.25;;;24.19;60.60
71903;BME280;59778;50.310;18.780;2022-08-01T12:41:18;98661.59;;;24.83;58.30
71903;BME280;59778;50.310;18.780;2022-08-01T12:56:39;98648.47;;;25.99;52.64
71903;BME280;59778;50.310;18.780;2022-08-01T13:43:27;98647.13;;;25.20;57.01
71903;BME280;59778;50.310;18.780;2022-08-01T13:58:48;98646.44;;;25.81;56.79
71903;BME280;59778;50.310;18.780;2022-08-01T14:14:09;98630.78;;;25.38;54.79
71903;BME280;59778;50.310;18.780;2022-08-01T14:29:31;98648.81;;;26.11;54.04
71903;BME280;59778;50.310;18.780;2022-08-01T14:44:52;98653.66;;;25.29;56.27
71903;BME280;59778;50.310;18.780;2022-08-01T15:00:13;98647.97;;;24.87;59.29
71903;BME280;59778;50.310;18.780;2022-08-01T15:15:34;98661.13;;;24.27;61.83
71903;BME280;59778;50.310;18.780;2022-08-01T15:30:56;98679.53;;;24.13;62.29
71903;BME280;59778;50.310;18.780;2022-08-01T15:46:18;98661.13;;;24.27;61.12
71903;BME280;59778;50.310;18.780;2022-08-01T16:01:40;98668.00;;;24.45;59.71
71903;BME280;59778;50.310;18.780;2022-08-01T16:33:10;98659.88;;;24.00;60.02
71903;BME280;59778;50.310;18.780;2022-08-01T16:48:31;98658.75;;;24.06;61.60
71903;BME280;59778;50.310;18.780;2022-08-01T17:03:53;98676.25;;;24.01;62.02
71903;BME280;59778;50.310;18.780;2022-08-01T17:19:15;98688.78;;;23.88;64.28
71903;BME280;59778;50.310;18.780;2022-08-01T17:34:36;98690.56;;;23.34;64.19
71903;BME280;59778;50.310;18.780;2022-08-01T17:49:58;98694.19;;;23.29;63.72
71903;BME280;59778;50.310;18.780;2022-08-01T18:05:22;98707.75;;;22.95;65.18
71903;BME280;59778;50.310;18.780;2022-08-01T18:20:43;98721.81;;;22.48;67.73
71903;BME280;59778;50.310;18.780;2022-08-01T18:36:04;98743.78;;;22.03;70.62
71903;BME280;59778;50.310;18.780;2022-08-01T18:51:25;98761.84;;;21.74;72.33
71903;BME280;59778;50.310;18.780;2022-08-01T19:06:48;98767.22;;;21.11;77.41
71903;BME280;59778;50.310;18.780;2022-08-01T19:22:09;98778.53;;;20.83;78.25
71903;BME280;59778;50.310;18.780;2022-08-01T19:37:31;98798.84;;;20.50;80.25
71903;BME280;59778;50.310;18.780;2022-08-01T19:52:54;98809.25;;;20.21;81.71
71903;BME280;59778;50.310;18.780;2022-08-01T20:08:18;98827.63;;;19.94;84.62
71903;BME280;59778;50.310;18.780;2022-08-01T20:23:42;98844.59;;;20.03;84.50
71903;BME280;59778;50.310;18.780;2022-08-01T20:39:03;98837.78;;;20.10;84.11
71903;BME280;59778;50.310;18.780;2022-08-01T20:54:24;98829.81;;;19.92;86.63
71903;BME280;59778;50.310;18.780;2022-08-01T21:25:25;98846.72;;;19.62;90.72
71903;BME280;59778;50.310;18.780;2022-08-01T21:40:48;98856.72;;;19.52;91.86
71903;BME280;59778;50.310;18.780;2022-08-01T21:56:45;98862.66;;;19.44;92.65
71903;BME280;59778;50.310;18.780;2022-08-01T22:12:08;98881.19;;;19.48;92.00
71903;BME280;59778;50.310;18.780;2022-08-01T22:27:30;98870.47;;;19.18;93.99
71903;BME280;59778;50.310;18.780;2022-08-01T22:42:57;98866.34;;;19.04;94.23
71903;BME280;59778;50.310;18.780;2022-08-01T22:58:21;98885.13;;;18.79;94.65
71903;BME280;59778;50.310;18.780;2022-08-01T23:13:42;98886.28;;;18.55;94.81
71903;BME280;59778;50.310;18.780;2022-08-01T23:29:04;98885.56;;;18.48;94.35
71903;BME280;59778;50.310;18.780;2022-08-01T23:44:26;98886.44;;;18.36;94.12
71903;BME280;59778;50.310;18.780;2022-08-01T23:59:48;98891.50;;;18.16;95.41
